createdAt,value
2018-04-10T00:00:36.786Z,81.82
2018-04-10T00:01:37.218Z,82.01
2018-04-10T00:02:37.657Z,81.82
2018-04-10T00:03:38.078Z,82.59
2018-04-10T00:04:38.515Z,82.30
2018-04-10T00:05:38.952Z,82.40
2018-04-10T00:06:39.380Z,82.30
2018-04-10T00:07:39.813Z,82.78
2018-04-10T00:08:40.258Z,82.78
2018-04-10T00:09:40.688Z,83.16
2018-04-10T00:10:41.115Z,82.97
2018-04-10T00:11:41.556Z,83.26
2018-04-10T00:12:41.990Z,82.87
2018-04-10T00:13:42.415Z,83.26
2018-04-10T00:14:42.859Z,83.54
2018-04-10T00:15:43.278Z,83.93
2018-04-10T00:16:43.716Z,84.02
2018-04-10T00:17:44.147Z,84.50
2018-04-10T00:18:44.580Z,84.12
2018-04-10T00:19:45.012Z,84.02
2018-04-10T00:20:45.475Z,83.73
2018-04-10T00:21:45.894Z,84.41
2018-04-10T00:22:46.314Z,84.12
2018-04-10T00:23:46.755Z,84.59
2018-04-10T00:24:47.179Z,84.79
2018-04-10T00:25:47.610Z,84.88
2018-04-10T00:26:48.065Z,84.50
2018-04-10T00:27:48.480Z,84.59
2018-04-10T00:28:48.907Z,84.98
2018-04-10T00:29:49.346Z,84.79
2018-04-10T00:30:49.778Z,85.36
2018-04-10T00:31:50.204Z,85.65
2018-04-10T00:32:50.647Z,86.13
2018-04-10T00:33:51.076Z,85.71
2018-04-10T00:34:51.506Z,85.41
2018-04-10T00:35:51.964Z,85.65
2018-04-10T00:36:52.388Z,85.89
2018-04-10T00:37:52.818Z,85.84
2018-04-10T00:38:53.238Z,85.75
2018-04-10T00:39:53.674Z,85.65
2018-04-10T00:40:54.104Z,86.61
2018-04-10T00:41:54.536Z,85.55
2018-04-10T00:42:54.974Z,86.61
2018-04-10T00:43:55.413Z,86.37
2018-04-10T00:44:55.844Z,86.57
2018-04-10T00:45:56.270Z,86.57
2018-04-10T00:46:56.705Z,86.70
2018-04-10T00:47:57.133Z,86.66
2018-04-10T00:48:57.582Z,87.18
2018-04-10T00:49:58.000Z,86.66
2018-04-10T00:50:58.431Z,86.66
2018-04-10T00:51:58.869Z,86.90
2018-04-10T00:52:59.298Z,86.37
2018-04-10T00:53:59.727Z,86.61
2018-04-10T00:55:00.160Z,86.94
2018-04-10T00:56:00.602Z,86.99
2018-04-10T00:57:07.873Z,87.18
2018-04-10T00:58:01.455Z,87.14
2018-04-10T00:59:01.892Z,87.04
2018-04-10T01:00:02.332Z,87.43
2018-04-10T01:01:02.814Z,87.18
2018-04-10T01:02:03.199Z,87.08
2018-04-10T01:03:03.623Z,87.37
2018-04-10T01:04:04.053Z,87.08
2018-04-10T01:05:04.486Z,87.37
2018-04-10T01:06:04.922Z,87.37
2018-04-10T01:07:05.356Z,87.18
2018-04-10T01:08:05.790Z,87.18
2018-04-10T01:09:06.212Z,87.62
2018-04-10T01:10:06.652Z,87.43
2018-04-10T01:11:07.088Z,87.37
2018-04-10T01:12:07.517Z,87.43
2018-04-10T01:13:07.946Z,87.27
2018-04-10T01:14:08.378Z,87.33
2018-04-10T01:15:08.811Z,87.47
2018-04-10T01:16:09.242Z,87.14
2018-04-10T01:17:09.676Z,87.18
2018-04-10T01:18:10.112Z,86.94
2018-04-10T01:19:10.545Z,87.18
2018-04-10T01:20:10.978Z,87.23
2018-04-10T01:21:11.409Z,87.47
2018-04-10T01:22:11.839Z,87.08
2018-04-10T01:23:12.274Z,87.18
2018-04-10T01:24:12.702Z,87.33
2018-04-10T01:25:13.136Z,87.08
2018-04-10T01:27:47.647Z,87.14
2018-04-10T01:28:48.076Z,87.43
2018-04-10T01:30:42.641Z,87.23
2018-04-10T01:31:43.075Z,86.85
2018-04-10T01:32:43.500Z,86.80
2018-04-10T01:33:43.940Z,87.08
2018-04-10T01:34:44.377Z,87.18
2018-04-10T01:35:47.400Z,87.43
2018-04-10T01:36:45.241Z,86.85
2018-04-10T01:37:45.664Z,87.43
2018-04-10T01:38:46.101Z,87.52
2018-04-10T01:39:46.572Z,87.90
2018-04-10T01:40:46.969Z,87.90
2018-04-10T01:41:47.397Z,87.62
2018-04-10T01:42:47.836Z,87.71
2018-04-10T01:43:48.266Z,87.90
2018-04-10T01:44:48.697Z,88.09
2018-04-10T01:45:49.132Z,88.00
2018-04-10T01:46:49.559Z,88.29
2018-04-10T01:47:49.988Z,88.00
2018-04-10T01:48:50.425Z,88.67
2018-04-10T01:49:50.857Z,88.48
2018-04-10T01:50:51.283Z,89.15
2018-04-10T01:51:51.724Z,88.57
2018-04-10T01:52:52.151Z,88.67
2018-04-10T01:53:52.587Z,88.67
2018-04-10T01:54:53.012Z,88.86
2018-04-10T01:55:53.456Z,88.86
2018-04-10T01:56:53.882Z,88.48
2018-04-10T01:57:54.314Z,88.86
2018-04-10T01:58:54.750Z,88.57
2018-04-10T01:59:55.176Z,88.57
2018-04-10T02:00:55.607Z,89.05
2018-04-10T02:01:56.046Z,89.05
2018-04-10T02:02:56.478Z,88.95
2018-04-10T02:03:56.912Z,89.43
2018-04-10T02:04:57.347Z,88.86
2018-04-10T02:05:57.800Z,89.43
2018-04-10T02:06:58.206Z,89.34
2018-04-10T02:07:58.632Z,89.34
2018-04-10T02:08:59.077Z,89.53
2018-04-10T02:09:59.499Z,89.24
2018-04-10T02:10:59.932Z,89.91
2018-04-10T02:12:00.380Z,89.34
2018-04-10T02:13:00.796Z,90.20
2018-04-10T02:14:01.227Z,89.91
2018-04-10T02:15:01.656Z,89.91
2018-04-10T02:16:02.095Z,89.87
2018-04-10T02:17:02.528Z,90.06
2018-04-10T02:18:02.968Z,89.87
2018-04-10T02:19:03.393Z,90.44
2018-04-10T02:20:03.822Z,90.63
2018-04-10T02:21:04.256Z,90.25
2018-04-10T02:22:04.682Z,90.73
2018-04-10T02:23:05.116Z,90.82
2018-04-10T02:24:05.551Z,90.34
2018-04-10T02:25:06.010Z,91.11
2018-04-10T02:26:06.418Z,91.39
2018-04-10T02:27:06.848Z,91.78
2018-04-10T02:28:07.271Z,91.49
2018-04-10T02:29:07.716Z,91.20
2018-04-10T02:30:08.145Z,91.30
2018-04-10T02:31:08.567Z,91.30
2018-04-10T02:32:09.005Z,91.68
2018-04-10T02:33:09.440Z,91.88
2018-04-10T02:34:09.870Z,92.25
2018-04-10T02:35:10.298Z,92.07
2018-04-10T02:36:10.732Z,92.35
2018-04-10T02:37:11.160Z,92.83
2018-04-10T02:38:11.595Z,92.35
2018-04-10T02:39:12.028Z,92.74
2018-04-10T02:40:12.457Z,92.83
2018-04-10T02:41:12.887Z,92.64
2018-04-10T02:42:13.322Z,93.02
2018-04-10T02:43:13.756Z,92.35
2018-04-10T02:44:14.190Z,92.35
2018-04-10T02:45:14.636Z,93.02
2018-04-10T02:46:15.046Z,92.35
2018-04-10T02:47:15.481Z,92.25
2018-04-10T02:48:15.919Z,92.64
2018-04-10T02:49:16.371Z,92.45
2018-04-10T02:50:16.778Z,92.93
2018-04-10T02:51:17.217Z,93.02
2018-04-10T02:52:17.641Z,93.02
2018-04-10T02:53:18.073Z,93.12
2018-04-10T02:54:18.501Z,92.93
2018-04-10T02:55:18.928Z,93.21
2018-04-10T02:56:19.364Z,93.21
2018-04-10T02:57:19.797Z,93.02
2018-04-10T02:58:20.230Z,93.02
2018-04-10T02:59:20.660Z,93.12
2018-04-10T03:00:21.093Z,93.12
2018-04-10T03:01:21.519Z,92.93
2018-04-10T03:02:21.949Z,93.21
2018-04-10T03:03:22.442Z,92.93
2018-04-10T03:04:22.817Z,93.02
2018-04-10T03:05:23.247Z,93.40
2018-04-10T03:06:23.676Z,93.50
2018-04-10T03:07:24.106Z,93.60
2018-04-10T03:08:24.539Z,93.21
2018-04-10T03:09:24.976Z,93.02
2018-04-10T03:10:25.398Z,93.12
2018-04-10T03:11:25.840Z,93.40
2018-04-10T03:12:26.265Z,93.50
2018-04-10T03:13:26.697Z,93.50
2018-04-10T03:14:27.127Z,93.55
2018-04-10T03:15:27.557Z,93.93
2018-04-10T03:16:27.989Z,94.02
2018-04-10T03:17:28.438Z,93.31
2018-04-10T03:18:28.858Z,93.50
2018-04-10T03:19:29.286Z,93.69
2018-04-10T03:20:29.719Z,93.55
2018-04-10T03:21:30.145Z,93.55
2018-04-10T03:22:30.576Z,93.60
2018-04-10T03:23:31.032Z,93.40
2018-04-10T03:24:31.438Z,93.65
2018-04-10T03:25:31.875Z,94.41
2018-04-10T03:26:32.301Z,93.93
2018-04-10T03:27:32.736Z,94.41
2018-04-10T03:28:33.163Z,93.26
2018-04-10T03:29:33.595Z,93.26
2018-04-10T03:30:34.024Z,93.55
2018-04-10T03:31:34.454Z,93.93
2018-04-10T03:32:34.889Z,93.74
2018-04-10T03:33:35.322Z,93.93
2018-04-10T03:34:35.782Z,94.41
2018-04-10T03:35:36.182Z,93.45
2018-04-10T03:36:36.616Z,93.55
2018-04-10T03:37:37.042Z,94.02
2018-04-10T03:38:37.477Z,93.93
2018-04-10T03:39:37.909Z,93.74
2018-04-10T03:40:38.347Z,94.22
2018-04-10T03:41:38.779Z,94.12
2018-04-10T03:42:39.219Z,94.31
2018-04-10T03:43:39.632Z,93.65
2018-04-10T03:44:40.061Z,93.93
2018-04-10T03:45:40.491Z,94.02
2018-04-10T03:46:40.928Z,94.02
2018-04-10T03:47:41.354Z,94.02
2018-04-10T03:48:41.782Z,93.84
2018-04-10T03:49:42.227Z,93.93
2018-04-10T03:50:42.649Z,94.12
2018-04-10T03:51:43.075Z,94.51
2018-04-10T03:52:43.510Z,94.12
2018-04-10T03:53:43.944Z,94.89
2018-04-10T03:54:44.374Z,94.51
2018-04-10T03:55:44.838Z,94.70
2018-04-10T03:56:45.236Z,94.02
2018-04-10T03:57:45.670Z,94.70
2018-04-10T03:58:46.094Z,94.41
2018-04-10T03:59:46.531Z,94.70
2018-04-10T04:00:46.960Z,94.79
2018-04-10T04:01:47.393Z,94.51
2018-04-10T04:02:47.821Z,94.22
2018-04-10T04:03:48.271Z,94.41
2018-04-10T04:04:48.701Z,94.41
2018-04-10T04:05:49.125Z,94.70
2018-04-10T04:06:49.544Z,94.51
2018-04-10T04:07:49.981Z,94.51
2018-04-10T04:08:50.411Z,94.41
2018-04-10T04:09:50.835Z,94.60
2018-04-10T04:10:51.271Z,94.70
2018-04-10T04:11:51.704Z,94.51
2018-04-10T04:12:52.202Z,94.70
2018-04-10T04:13:52.562Z,94.60
2018-04-10T04:14:52.993Z,94.60
2018-04-10T04:15:53.428Z,94.89
2018-04-10T04:16:53.852Z,94.79
2018-04-10T04:17:54.277Z,94.89
2018-04-10T04:18:54.713Z,94.60
2018-04-10T04:19:55.137Z,94.70
2018-04-10T04:20:55.605Z,94.41
2018-04-10T04:21:56.007Z,94.98
2018-04-10T04:22:56.441Z,94.79
2018-04-10T04:23:56.870Z,94.89
2018-04-10T04:24:57.296Z,94.51
2018-04-10T04:25:57.748Z,94.70
2018-04-10T04:26:58.156Z,94.70
2018-04-10T04:27:58.594Z,95.17
2018-04-10T04:28:59.025Z,95.07
2018-04-10T04:29:59.459Z,94.51
2018-04-10T04:30:59.885Z,94.60
2018-04-10T04:32:00.310Z,94.60
2018-04-10T04:33:00.744Z,94.79
2018-04-10T04:34:01.171Z,94.70
2018-04-10T04:35:01.598Z,94.79
2018-04-10T04:36:02.034Z,94.98
2018-04-10T04:37:02.468Z,94.41
2018-04-10T04:38:02.897Z,94.89
2018-04-10T04:39:03.328Z,94.41
2018-04-10T04:40:03.762Z,94.79
2018-04-10T04:41:04.194Z,94.79
2018-04-10T04:42:04.615Z,94.31
2018-04-10T04:43:05.055Z,94.89
2018-04-10T04:44:05.475Z,94.70
2018-04-10T04:45:05.916Z,94.89
2018-04-10T04:46:06.335Z,94.12
2018-04-10T04:47:06.790Z,94.22
2018-04-10T04:48:07.204Z,94.22
2018-04-10T04:49:07.636Z,94.89
2018-04-10T04:50:08.064Z,94.31
2018-04-10T04:51:08.499Z,94.41
2018-04-10T04:52:08.939Z,94.79
2018-04-10T04:53:09.358Z,94.12
2018-04-10T04:54:09.796Z,93.93
2018-04-10T04:55:10.233Z,94.31
2018-04-10T04:56:10.648Z,94.02
2018-04-10T04:57:11.084Z,94.12
2018-04-10T04:58:11.513Z,94.31
2018-04-10T04:59:11.943Z,94.02
2018-04-10T05:00:12.377Z,94.02
2018-04-10T05:01:12.810Z,94.12
2018-04-10T05:02:13.233Z,94.70
2018-04-10T05:03:13.667Z,94.79
2018-04-10T05:04:14.100Z,94.79
2018-04-10T05:05:14.533Z,94.79
2018-04-10T05:06:14.967Z,94.12
2018-04-10T05:07:15.391Z,94.41
2018-04-10T05:08:15.818Z,94.79
2018-04-10T05:09:16.264Z,94.22
2018-04-10T05:10:16.683Z,94.12
2018-04-10T05:11:17.119Z,94.02
2018-04-10T05:12:17.551Z,94.51
2018-04-10T05:13:17.985Z,94.02
2018-04-10T05:14:18.409Z,94.36
2018-04-10T05:15:18.845Z,94.36
2018-04-10T05:16:19.268Z,93.93
2018-04-10T05:17:19.704Z,94.22
2018-04-10T05:18:20.141Z,94.31
2018-04-10T05:19:20.571Z,93.93
2018-04-10T05:20:20.995Z,94.41
2018-04-10T05:21:21.426Z,93.88
2018-04-10T05:22:21.859Z,94.41
2018-04-10T05:23:22.312Z,93.60
2018-04-10T05:24:22.720Z,93.69
2018-04-10T05:25:23.153Z,93.88
2018-04-10T05:26:23.589Z,93.98
2018-04-10T05:27:24.034Z,94.46
2018-04-10T05:28:24.446Z,94.02
2018-04-10T05:29:24.903Z,94.36
2018-04-10T05:30:25.316Z,94.79
2018-04-10T05:31:25.736Z,94.36
2018-04-10T05:32:26.185Z,93.69
2018-04-10T05:33:26.629Z,93.60
2018-04-10T05:34:27.055Z,93.79
2018-04-10T05:35:27.473Z,94.17
2018-04-10T05:36:27.899Z,94.17
2018-04-10T05:37:28.334Z,93.98
2018-04-10T05:38:28.764Z,93.88
2018-04-10T05:39:29.196Z,93.79
2018-04-10T05:40:29.627Z,94.17
2018-04-10T05:41:30.066Z,93.69
2018-04-10T05:45:36.667Z,94.07
2018-04-10T05:46:37.102Z,93.79
2018-04-10T05:48:31.699Z,93.60
2018-04-10T05:49:32.106Z,93.40
2018-04-10T05:51:26.665Z,93.60
2018-04-10T05:52:30.864Z,93.16
2018-04-10T05:54:22.744Z,93.02
2018-04-10T05:55:23.059Z,92.97
2018-04-10T05:57:17.649Z,92.88
2018-04-10T05:58:18.073Z,93.07
2018-04-10T06:00:12.662Z,93.50
2018-04-10T06:01:13.074Z,93.12
2018-04-10T06:03:09.619Z,92.97
2018-04-10T06:04:10.070Z,93.26
2018-04-10T06:05:10.488Z,92.88
2018-04-10T06:06:10.916Z,93.26
2018-04-10T06:07:11.351Z,92.78
2018-04-10T06:08:11.776Z,92.59
2018-04-10T06:09:12.214Z,92.59
2018-04-10T06:10:12.641Z,93.16
2018-04-10T06:11:13.130Z,92.78
2018-04-10T06:12:13.519Z,92.78
2018-04-10T06:13:13.963Z,92.40
2018-04-10T06:14:14.374Z,92.59
2018-04-10T06:15:14.808Z,92.30
2018-04-10T06:16:15.253Z,92.30
2018-04-10T06:17:15.668Z,92.02
2018-04-10T06:18:16.102Z,92.49
2018-04-10T06:19:16.538Z,92.30
2018-04-10T06:20:16.968Z,91.68
2018-04-10T06:21:17.405Z,92.40
2018-04-10T06:22:17.834Z,92.30
2018-04-10T06:23:18.273Z,92.21
2018-04-10T06:24:18.697Z,91.83
2018-04-10T06:25:19.136Z,91.20
2018-04-10T06:26:19.566Z,91.39
2018-04-10T06:27:19.996Z,91.01
2018-04-10T06:28:20.435Z,90.82
2018-04-10T06:29:20.867Z,90.91
2018-04-10T06:30:21.294Z,90.34
2018-04-10T06:31:21.727Z,90.58
2018-04-10T06:32:22.164Z,90.48
2018-04-10T06:33:23.596Z,90.44
2018-04-10T06:34:23.033Z,90.53
2018-04-10T06:35:23.469Z,90.44
2018-04-10T06:36:23.894Z,90.48
2018-04-10T06:37:24.365Z,89.90
2018-04-10T06:38:24.767Z,89.52
2018-04-10T06:39:25.198Z,89.90
2018-04-10T06:40:27.401Z,89.81
2018-04-10T06:41:26.075Z,89.23
2018-04-10T06:42:26.604Z,89.14
2018-04-10T06:43:26.927Z,89.04
2018-04-10T06:44:27.368Z,89.14
2018-04-10T06:45:27.801Z,89.33
2018-04-10T06:46:29.946Z,88.95
2018-04-10T06:47:28.677Z,88.61
2018-04-10T06:48:30.912Z,88.37
2018-04-10T06:49:29.531Z,89.43
2018-04-10T06:50:31.899Z,89.18
2018-04-10T06:51:30.405Z,88.99
2018-04-10T06:52:32.400Z,88.32
2018-04-10T06:53:31.277Z,88.23
2018-04-10T06:54:31.712Z,88.42
2018-04-10T06:55:33.903Z,87.74
2018-04-10T06:56:32.581Z,88.42
2018-04-10T06:57:33.030Z,88.42
2018-04-10T06:58:33.444Z,87.17
2018-04-10T06:59:33.888Z,87.08
2018-04-10T07:00:34.315Z,86.88
2018-04-10T07:01:34.762Z,87.17
2018-04-10T07:02:35.183Z,87.02
2018-04-10T07:03:35.621Z,86.64
2018-04-10T07:04:36.059Z,86.74
2018-04-10T07:05:36.495Z,86.74
2018-04-10T07:06:36.923Z,86.07
2018-04-10T07:07:37.353Z,86.16
2018-04-10T07:08:37.788Z,85.88
2018-04-10T07:09:38.238Z,85.97
2018-04-10T07:10:38.716Z,86.45
2018-04-10T07:11:39.098Z,86.25
2018-04-10T07:12:39.541Z,85.72
2018-04-10T07:13:39.972Z,85.15
2018-04-10T07:14:40.417Z,84.86
2018-04-10T07:15:40.943Z,84.67
2018-04-10T07:16:41.280Z,84.86
2018-04-10T07:17:41.719Z,84.77
2018-04-10T07:18:42.147Z,83.81
2018-04-10T07:19:42.583Z,83.56
2018-04-10T07:20:43.018Z,83.65
2018-04-10T07:21:43.455Z,84.19
2018-04-10T07:22:43.902Z,83.14
2018-04-10T07:23:44.342Z,83.27
2018-04-10T07:24:44.772Z,82.98
2018-04-10T07:25:45.199Z,82.41
2018-04-10T07:26:45.633Z,82.98
2018-04-10T07:27:46.090Z,83.27
2018-04-10T07:28:46.507Z,82.60
2018-04-10T07:29:46.943Z,81.93
2018-04-10T07:30:47.385Z,81.93
2018-04-10T07:31:47.818Z,82.12
2018-04-10T07:32:48.260Z,81.40
2018-04-10T07:33:48.693Z,81.87
2018-04-10T07:34:49.128Z,80.63
2018-04-10T07:35:49.589Z,79.76
2018-04-10T07:36:50.005Z,79.61
2018-04-10T07:37:50.443Z,79.42
2018-04-10T07:38:50.877Z,78.94
2018-04-10T07:39:51.357Z,78.75
2018-04-10T07:40:51.794Z,78.75
2018-04-10T07:41:52.196Z,78.55
2018-04-10T07:42:52.634Z,78.11
2018-04-10T07:43:53.066Z,77.25
2018-04-10T07:44:53.511Z,77.06
2018-04-10T07:45:53.954Z,76.32
2018-04-10T07:46:54.389Z,75.46
2018-04-10T07:47:54.831Z,74.54
2018-04-10T07:48:55.265Z,72.90
2018-04-10T07:49:55.715Z,71.97
2018-04-10T07:50:56.146Z,70.72
2018-04-10T07:51:56.595Z,70.76
2018-04-10T07:52:57.029Z,70.31
2018-04-10T07:53:57.527Z,68.04
2018-04-10T07:54:57.922Z,66.97
2018-04-10T07:55:58.367Z,65.81
2018-04-10T07:56:58.843Z,65.95
2018-04-10T07:57:59.265Z,63.95
2018-04-10T07:58:59.686Z,63.57
2018-04-10T08:00:00.136Z,62.22
2018-04-10T08:01:00.599Z,62.05
2018-04-10T08:02:01.039Z,60.51
2018-04-10T08:03:01.487Z,61.28
2018-04-10T08:04:01.946Z,61.54
2018-04-10T08:05:02.378Z,60.96
2018-04-10T08:06:02.842Z,60.41
2018-04-10T08:07:03.272Z,59.28
2018-04-10T08:08:03.723Z,59.00
2018-04-10T08:09:04.170Z,58.42
2018-04-10T08:10:04.613Z,58.35
2018-04-10T08:11:05.078Z,56.45
2018-04-10T08:12:05.531Z,54.95
2018-04-10T08:13:05.979Z,55.21
2018-04-10T08:14:06.425Z,56.40
2018-04-10T08:15:06.870Z,54.08
2018-04-10T08:16:07.322Z,53.17
2018-04-10T08:17:07.782Z,50.72
2018-04-10T08:18:08.256Z,51.83
2018-04-10T08:19:08.675Z,51.72
2018-04-10T08:20:09.136Z,50.09
2018-04-10T08:21:09.595Z,50.41
2018-04-10T08:22:10.045Z,49.27
2018-04-10T08:23:10.499Z,50.33
2018-04-10T08:24:10.948Z,50.60
2018-04-10T08:25:11.426Z,50.43
2018-04-10T08:26:11.859Z,50.82
2018-04-10T08:27:12.313Z,50.45
2018-04-10T08:28:12.783Z,48.52
2018-04-10T08:29:13.238Z,48.44
2018-04-10T08:30:13.671Z,47.03
2018-04-10T08:31:14.143Z,45.89
2018-04-10T08:32:14.597Z,45.70
2018-04-10T08:33:15.046Z,45.21
2018-04-10T08:34:15.508Z,46.26
2018-04-10T08:35:15.956Z,46.58
2018-04-10T08:36:16.422Z,47.67
2018-04-10T08:37:16.880Z,45.92
2018-04-10T08:38:17.333Z,44.21
2018-04-10T08:39:17.783Z,42.24
2018-04-10T08:40:18.239Z,41.32
2018-04-10T08:41:18.706Z,41.05
2018-04-10T08:42:19.160Z,40.78
2018-04-10T08:43:19.618Z,41.30
2018-04-10T08:44:20.077Z,40.83
2018-04-10T08:45:20.525Z,43.20
2018-04-10T08:46:20.987Z,43.32
2018-04-10T08:47:21.449Z,41.67
2018-04-10T08:48:21.907Z,43.24
2018-04-10T08:49:22.370Z,42.97
2018-04-10T08:50:22.816Z,41.03
2018-04-10T08:51:23.292Z,42.11
2018-04-10T08:52:23.772Z,44.48
2018-04-10T08:53:24.201Z,41.53
2018-04-10T08:54:24.674Z,39.55
2018-04-10T08:55:25.113Z,38.01
2018-04-10T08:56:25.576Z,37.91
2018-04-10T08:57:26.036Z,38.82
2018-04-10T08:58:26.499Z,39.51
2018-04-10T08:59:26.966Z,39.03
2018-04-10T09:00:27.415Z,38.34
2018-04-10T09:01:27.880Z,38.81
2018-04-10T09:02:28.335Z,38.98
2018-04-10T09:03:28.798Z,37.99
2018-04-10T09:04:29.253Z,38.16
2018-04-10T09:05:29.737Z,37.73
2018-04-10T09:06:30.190Z,39.67
2018-04-10T09:07:30.639Z,39.18
2018-04-10T09:08:31.101Z,41.34
2018-04-10T09:09:31.559Z,39.00
2018-04-10T09:10:32.032Z,36.68
2018-04-10T09:11:32.478Z,38.85
2018-04-10T09:12:32.950Z,38.02
2018-04-10T09:13:33.412Z,37.89
2018-04-10T09:14:33.872Z,37.33
2018-04-10T09:15:34.338Z,38.10
2018-04-10T09:16:34.797Z,37.92
2018-04-10T09:17:35.266Z,39.92
2018-04-10T09:18:35.718Z,39.43
2018-04-10T09:19:36.188Z,37.89
2018-04-10T09:20:36.660Z,38.12
2018-04-10T09:21:37.122Z,39.12
2018-04-10T09:22:37.565Z,35.72
2018-04-10T09:23:38.039Z,37.12
2018-04-10T09:24:38.500Z,37.73
2018-04-10T09:25:38.960Z,36.72
2018-04-10T09:26:39.423Z,34.97
2018-04-10T09:27:39.893Z,35.24
2018-04-10T09:28:40.352Z,36.10
2018-04-10T09:29:40.835Z,35.97
2018-04-10T09:30:41.283Z,32.95
2018-04-10T09:31:41.738Z,32.56
2018-04-10T09:32:42.212Z,32.55
2018-04-10T09:33:42.668Z,33.79
2018-04-10T09:34:43.143Z,33.61
2018-04-10T09:35:43.594Z,32.37
2018-04-10T09:36:44.069Z,31.70
2018-04-10T09:37:44.531Z,31.49
2018-04-10T09:38:44.999Z,32.43
2018-04-10T09:39:45.463Z,33.40
2018-04-10T09:40:45.925Z,34.96
2018-04-10T09:41:46.395Z,33.45
2018-04-10T09:42:46.850Z,31.32
2018-04-10T09:43:47.338Z,31.67
2018-04-10T09:44:47.779Z,32.99
2018-04-10T09:45:48.252Z,35.16
2018-04-10T09:46:48.716Z,33.56
2018-04-10T09:47:49.181Z,33.22
2018-04-10T09:48:49.639Z,33.61
2018-04-10T09:49:50.112Z,33.51
2018-04-10T09:50:50.582Z,32.32
2018-04-10T09:51:51.127Z,33.48
2018-04-10T09:52:51.517Z,32.06
2018-04-10T09:53:51.981Z,30.71
2018-04-10T09:54:52.468Z,32.53
2018-04-10T09:55:52.918Z,33.02
2018-04-10T09:56:53.375Z,31.62
2018-04-10T09:57:53.841Z,33.54
2018-04-10T09:58:54.308Z,33.48
2018-04-10T09:59:54.802Z,32.43
2018-04-10T10:00:55.242Z,32.24
2018-04-10T10:01:55.701Z,32.40
2018-04-10T10:02:56.175Z,34.35
2018-04-10T10:03:56.636Z,35.16
2018-04-10T10:04:57.114Z,34.88
2018-04-10T10:05:57.572Z,35.06
2018-04-10T10:06:58.049Z,36.49
2018-04-10T10:07:58.507Z,35.10
2018-04-10T10:08:58.984Z,35.31
2018-04-10T10:09:59.441Z,33.02
2018-04-10T10:10:59.900Z,31.77
2018-04-10T10:12:00.376Z,31.48
2018-04-10T10:13:00.840Z,30.68
2018-04-10T10:14:01.303Z,31.65
2018-04-10T10:15:01.792Z,31.65
2018-04-10T10:16:02.247Z,33.17
2018-04-10T10:17:02.704Z,33.95
2018-04-10T10:18:03.168Z,35.46
2018-04-10T10:19:03.663Z,35.06
2018-04-10T10:20:04.103Z,34.26
2018-04-10T10:21:04.576Z,33.02
2018-04-10T10:22:05.032Z,31.48
2018-04-10T10:23:05.508Z,30.80
2018-04-10T10:24:05.967Z,31.35
2018-04-10T10:25:06.440Z,32.75
2018-04-10T10:26:06.911Z,33.61
2018-04-10T10:27:07.376Z,35.78
2018-04-10T10:28:07.860Z,36.94
2018-04-10T10:29:08.304Z,37.02
2018-04-10T10:30:08.769Z,36.77
2018-04-10T10:31:09.243Z,36.40
2018-04-10T10:32:09.700Z,35.81
2018-04-10T10:33:10.176Z,35.81
2018-04-10T10:34:10.634Z,36.49
2018-04-10T10:35:13.064Z,36.02
2018-04-10T10:36:11.567Z,36.02
2018-04-10T10:37:12.032Z,36.82
2018-04-10T10:38:12.492Z,35.04
2018-04-10T10:39:12.967Z,33.12
2018-04-10T10:40:13.429Z,31.95
2018-04-10T10:41:13.898Z,31.64
2018-04-10T10:42:14.361Z,32.87
2018-04-10T10:43:14.821Z,32.89
2018-04-10T10:44:15.301Z,33.02
2018-04-10T10:45:15.751Z,31.95
2018-04-10T10:46:16.235Z,32.75
2018-04-10T10:47:16.686Z,34.12
2018-04-10T10:48:17.167Z,33.43
2018-04-10T10:49:17.620Z,30.82
2018-04-10T10:50:18.085Z,30.90
2018-04-10T10:51:18.560Z,31.28
2018-04-10T10:52:19.016Z,31.75
2018-04-10T10:53:19.556Z,32.89
2018-04-10T10:54:19.953Z,33.26
2018-04-10T10:55:20.414Z,32.26
2018-04-10T10:56:20.898Z,33.90
2018-04-10T10:57:21.363Z,31.56
2018-04-10T10:58:21.827Z,33.65
2018-04-10T10:59:22.295Z,32.97
2018-04-10T11:00:22.761Z,34.11
2018-04-10T11:01:23.230Z,33.20
2018-04-10T11:02:23.702Z,31.96
2018-04-10T11:03:24.176Z,31.68
2018-04-10T11:04:24.642Z,31.29
2018-04-10T11:05:25.110Z,31.87
2018-04-10T11:06:25.581Z,31.59
2018-04-10T11:07:26.047Z,32.14
2018-04-10T11:08:26.511Z,33.93
2018-04-10T11:09:26.981Z,34.05
2018-04-10T11:10:27.444Z,35.18
2018-04-10T11:11:27.921Z,32.78
2018-04-10T11:12:28.381Z,31.64
2018-04-10T11:13:28.853Z,31.45
2018-04-10T11:14:29.331Z,31.74
2018-04-10T11:15:29.795Z,32.11
2018-04-10T11:16:30.260Z,31.95
2018-04-10T11:17:30.727Z,30.88
2018-04-10T11:18:31.202Z,32.26
2018-04-10T11:19:31.672Z,31.59
2018-04-10T11:20:32.135Z,31.92
2018-04-10T11:21:32.612Z,32.87
2018-04-10T11:22:33.067Z,32.29
2018-04-10T11:23:33.547Z,32.40
2018-04-10T11:24:34.006Z,31.82
2018-04-10T11:25:34.481Z,31.82
2018-04-10T11:26:34.943Z,32.47
2018-04-10T11:27:35.419Z,33.33
2018-04-10T11:28:35.880Z,33.54
2018-04-10T11:29:36.353Z,33.33
2018-04-10T11:30:36.818Z,33.14
2018-04-10T11:31:37.286Z,32.96
2018-04-10T11:32:37.749Z,32.32
2018-04-10T11:33:38.220Z,31.70
2018-04-10T11:34:38.682Z,30.88
2018-04-10T11:35:39.154Z,31.84
2018-04-10T11:36:39.619Z,31.56
2018-04-10T11:37:54.648Z,30.96
2018-04-10T11:40:16.463Z,30.86
2018-04-10T11:41:15.166Z,31.59
2018-04-10T11:43:09.817Z,33.01
2018-04-10T11:44:10.267Z,34.17
2018-04-10T11:46:04.898Z,35.50
2018-04-10T11:47:05.358Z,36.44
2018-04-10T11:49:00.994Z,36.63
2018-04-10T11:50:01.415Z,37.68
2018-04-10T11:51:56.055Z,37.74
2018-04-10T11:52:56.497Z,38.79
2018-04-10T11:53:56.956Z,39.16
2018-04-10T11:54:57.409Z,40.13
2018-04-10T11:55:57.864Z,39.94
2018-04-10T11:56:58.328Z,39.84
2018-04-10T11:57:58.775Z,40.11
2018-04-10T11:58:59.232Z,39.82
2018-04-10T11:59:59.687Z,39.72
2018-04-10T12:01:00.133Z,39.72
2018-04-10T12:02:00.638Z,38.93
2018-04-10T12:03:01.040Z,39.22
2018-04-10T12:04:01.498Z,39.80
2018-04-10T12:05:01.945Z,39.20
2018-04-10T12:06:02.397Z,39.78
2018-04-10T12:07:02.850Z,40.36
2018-04-10T12:08:03.304Z,40.07
2018-04-10T12:09:03.775Z,40.09
2018-04-10T12:10:04.203Z,39.51
2018-04-10T12:11:04.649Z,38.64
2018-04-10T12:12:05.098Z,38.83
2018-04-10T12:13:05.549Z,38.62
2018-04-10T12:14:06.002Z,38.91
2018-04-10T12:15:06.450Z,38.81
2018-04-10T12:16:06.934Z,38.91
2018-04-10T12:17:07.351Z,38.81
2018-04-10T12:18:07.797Z,38.53
2018-04-10T12:19:08.243Z,39.01
2018-04-10T12:20:08.736Z,38.62
2018-04-10T12:21:09.141Z,38.73
2018-04-10T12:22:09.583Z,38.64
2018-04-10T12:23:10.028Z,38.71
2018-04-10T12:24:10.484Z,39.29
2018-04-10T12:25:10.951Z,39.29
2018-04-10T12:26:11.378Z,41.82
2018-04-10T12:27:11.822Z,42.00
2018-04-10T12:28:12.270Z,42.78
2018-04-10T12:29:12.715Z,42.41
2018-04-10T12:30:13.175Z,42.78
2018-04-10T12:31:13.619Z,42.80
2018-04-10T12:32:14.064Z,42.61
2018-04-10T12:33:14.503Z,42.13
2018-04-10T12:34:14.959Z,42.03
2018-04-10T12:35:15.402Z,41.62
2018-04-10T12:36:15.849Z,42.10
2018-04-10T12:37:16.308Z,41.72
2018-04-10T12:38:16.746Z,42.10
2018-04-10T12:39:17.184Z,41.62
2018-04-10T12:40:17.641Z,42.10
2018-04-10T12:41:18.093Z,41.72
2018-04-10T12:42:18.536Z,42.10
2018-04-10T12:43:18.984Z,41.72
2018-04-10T12:44:19.442Z,41.42
2018-04-10T12:45:19.905Z,41.64
2018-04-10T12:46:20.336Z,41.25
2018-04-10T12:47:20.773Z,41.74
2018-04-10T12:48:21.220Z,41.64
2018-04-10T12:49:21.666Z,40.77
2018-04-10T12:50:22.112Z,40.94
2018-04-10T12:51:22.564Z,41.35
2018-04-10T12:52:23.010Z,41.42
2018-04-10T12:53:23.472Z,41.16
2018-04-10T12:54:23.918Z,40.58
2018-04-10T12:55:24.360Z,40.48
2018-04-10T12:56:24.799Z,40.19
2018-04-10T12:57:25.244Z,40.56
2018-04-10T12:58:25.693Z,41.33
2018-04-10T12:59:26.136Z,41.42
2018-04-10T13:00:26.586Z,41.52
2018-04-10T13:01:27.036Z,42.40
2018-04-10T13:02:27.477Z,41.91
2018-04-10T13:03:27.939Z,41.55
2018-04-10T13:04:28.381Z,42.03
2018-04-10T13:05:28.820Z,41.83
2018-04-10T13:06:29.279Z,41.83
2018-04-10T13:07:29.716Z,42.22
2018-04-10T13:08:30.170Z,42.32
2018-04-10T13:09:30.618Z,42.51
2018-04-10T13:10:31.066Z,43.77
2018-04-10T13:11:31.506Z,43.48
2018-04-10T13:12:31.953Z,43.58
2018-04-10T13:13:32.447Z,42.61
2018-04-10T13:14:32.845Z,42.41